createdAt,value
2023-03-11T00:04:13.444Z,2.00
2023-03-11T00:08:31.459Z,1.90
2023-03-11T00:12:50.582Z,1.80
2023-03-11T00:17:10.470Z,1.80
2023-03-11T00:21:28.469Z,1.70
2023-03-11T00:25:47.392Z,1.60
2023-03-11T00:30:07.254Z,1.60
2023-03-11T00:34:25.800Z,1.50
2023-03-11T00:38:46.773Z,1.50
2023-03-11T00:43:05.706Z,1.50
2023-03-11T00:47:24.354Z,1.50
2023-03-11T00:51:44.943Z,1.40
2023-03-11T00:56:08.603Z,1.30
2023-03-11T01:00:27.257Z,1.30
2023-03-11T01:04:45.860Z,1.30
2023-03-11T01:09:05.892Z,1.20
2023-03-11T01:13:23.682Z,1.20
2023-03-11T01:17:42.656Z,1.20
2023-03-11T01:22:04.069Z,1.10
2023-03-11T01:26:23.782Z,1.10
2023-03-11T01:30:43.361Z,1.10
2023-03-11T01:35:02.960Z,1.10
2023-03-11T01:39:22.605Z,1.10
2023-03-11T01:43:50.239Z,1.00
2023-03-11T01:48:31.986Z,1.00
2023-03-11T01:53:12.355Z,1.00
2023-03-11T01:57:56.095Z,1.00
2023-03-11T02:02:37.397Z,0.90
2023-03-11T02:07:17.100Z,0.90
2023-03-11T02:11:59.519Z,0.80
2023-03-11T02:16:40.029Z,0.80
2023-03-11T02:21:25.011Z,0.80
2023-03-11T02:26:12.357Z,0.80
2023-03-11T02:30:59.466Z,0.80
2023-03-11T02:35:44.119Z,0.70
2023-03-11T02:40:55.647Z,0.80
2023-03-11T02:45:44.774Z,0.70
2023-03-11T02:50:34.544Z,0.70
2023-03-11T02:55:20.508Z,0.70
2023-03-11T03:00:11.247Z,0.70
2023-03-11T03:04:56.549Z,0.70
2023-03-11T03:09:42.501Z,0.70
2023-03-11T03:14:27.773Z,0.70
2023-03-11T03:19:12.593Z,0.70
2023-03-11T03:23:56.850Z,0.70
2023-03-11T03:28:42.862Z,0.70
2023-03-11T03:33:27.621Z,0.70
2023-03-11T03:38:13.173Z,0.60
2023-03-11T03:42:58.455Z,0.70
2023-03-11T03:47:44.981Z,0.70
2023-03-11T03:52:29.324Z,0.70
2023-03-11T03:57:16.240Z,0.70
2023-03-11T04:02:03.915Z,0.70
2023-03-11T04:06:51.067Z,0.70
2023-03-11T04:11:36.505Z,0.70
2023-03-11T04:16:23.723Z,0.70
2023-03-11T04:21:11.730Z,0.70
2023-03-11T04:25:57.609Z,0.70
2023-03-11T04:30:42.289Z,0.70
2023-03-11T04:35:27.171Z,0.60
2023-03-11T04:40:12.787Z,0.70
2023-03-11T04:45:00.094Z,0.70
2023-03-11T04:49:46.867Z,0.70
2023-03-11T04:54:31.449Z,0.60
2023-03-11T04:59:15.895Z,0.70
2023-03-11T05:04:04.143Z,0.60
2023-03-11T05:08:48.481Z,0.60
2023-03-11T05:13:32.937Z,0.60
2023-03-11T05:18:17.458Z,0.70
2023-03-11T05:23:03.941Z,0.70
2023-03-11T05:27:50.863Z,0.70
2023-03-11T05:32:36.518Z,0.60
2023-03-11T05:37:23.373Z,0.70
2023-03-11T05:42:10.925Z,0.70
2023-03-11T05:46:56.302Z,0.70
2023-03-11T05:51:40.650Z,0.70
2023-03-11T05:56:26.026Z,0.70
2023-03-11T06:01:15.720Z,0.70
2023-03-11T06:06:00.281Z,0.70
2023-03-11T06:10:46.779Z,0.70
2023-03-11T06:15:32.172Z,0.70
2023-03-11T06:20:18.135Z,0.70
2023-03-11T06:25:03.183Z,0.80
2023-03-11T06:29:54.495Z,0.80
2023-03-11T06:34:40.748Z,0.70
2023-03-11T06:39:26.727Z,0.80
2023-03-11T06:44:14.101Z,0.80
2023-03-11T06:49:00.055Z,0.80
2023-03-11T06:53:49.317Z,0.80
2023-03-11T06:58:37.805Z,0.80
2023-03-11T07:03:22.888Z,0.80
2023-03-11T07:08:07.988Z,0.90
2023-03-11T07:12:52.401Z,0.90
2023-03-11T07:17:38.599Z,0.90
2023-03-11T07:22:22.889Z,0.90
2023-03-11T07:27:07.334Z,0.90
2023-03-11T07:31:51.733Z,1.00
2023-03-11T07:36:37.251Z,1.00
2023-03-11T07:41:21.888Z,1.00
2023-03-11T07:46:08.390Z,1.10
2023-03-11T07:51:01.642Z,1.20
2023-03-11T07:55:47.050Z,1.30
2023-03-11T08:00:31.354Z,1.30
2023-03-11T08:05:16.784Z,1.40
2023-03-11T08:10:01.452Z,1.50
2023-03-11T08:14:47.095Z,1.60
2023-03-11T08:19:31.350Z,1.70
2023-03-11T08:24:26.518Z,1.90
2023-03-11T08:29:15.152Z,2.00
2023-03-11T08:34:03.656Z,2.10
2023-03-11T08:38:48.301Z,2.00
2023-03-11T08:43:32.387Z,2.00
2023-03-11T08:48:16.598Z,2.00
2023-03-11T08:53:03.300Z,2.10
2023-03-11T08:57:47.774Z,2.00
2023-03-11T09:02:32.147Z,1.90
2023-03-11T09:07:16.439Z,1.90
2023-03-11T09:12:02.030Z,1.90
2023-03-11T09:16:46.070Z,2.00
2023-03-11T09:21:30.632Z,2.00
2023-03-11T09:26:17.796Z,2.00
2023-03-11T09:31:03.619Z,2.10
2023-03-11T09:35:49.950Z,2.20
2023-03-11T09:40:47.592Z,2.20
2023-03-11T09:45:42.873Z,2.20
2023-03-11T09:50:33.820Z,2.30
2023-03-11T09:55:34.694Z,2.40
2023-03-11T10:00:22.687Z,2.50
2023-03-11T10:05:16.965Z,2.60
2023-03-11T10:10:06.616Z,2.80
2023-03-11T10:15:01.309Z,3.00
2023-03-11T10:20:04.913Z,3.00
2023-03-11T10:25:10.391Z,3.10
2023-03-11T10:30:10.130Z,3.20
2023-03-11T10:35:00.220Z,3.20
2023-03-11T11:42:53.759Z,3.30
2023-03-11T11:47:50.841Z,3.20
2023-03-11T11:52:28.605Z,3.10
2023-03-11T11:56:53.060Z,3.20
2023-03-11T12:01:23.318Z,3.20
2023-03-11T12:05:53.314Z,3.40
2023-03-11T12:10:24.834Z,3.70
2023-03-11T12:14:57.485Z,3.90
2023-03-11T12:19:35.961Z,4.10
2023-03-11T12:24:10.520Z,4.10
2023-03-11T12:28:47.700Z,4.20
2023-03-11T12:33:18.080Z,4.10
2023-03-11T12:37:44.229Z,4.00
2023-03-11T12:42:19.977Z,3.90
2023-03-11T12:47:34.581Z,3.90
2023-03-11T12:52:04.565Z,4.00
2023-03-11T12:56:39.749Z,4.10
2023-03-11T13:01:41.483Z,4.10
2023-03-11T13:06:21.008Z,4.00
2023-03-11T13:10:50.213Z,4.00
2023-03-11T13:15:43.103Z,3.90
2023-03-11T13:20:56.180Z,3.90
2023-03-11T13:25:37.826Z,3.90
2023-03-11T13:30:17.406Z,3.90
2023-03-11T13:34:49.808Z,3.90
2023-03-11T13:39:37.639Z,3.90
2023-03-11T13:44:12.644Z,3.90
2023-03-11T13:48:42.165Z,3.90
2023-03-11T13:53:11.805Z,3.90
2023-03-11T13:57:37.459Z,4.10
2023-03-11T14:02:04.749Z,4.10
2023-03-11T14:06:32.081Z,4.10
2023-03-11T14:10:59.078Z,4.20
2023-03-11T14:15:25.195Z,4.30
2023-03-11T14:20:16.347Z,4.30
2023-03-11T14:24:40.774Z,4.30
2023-03-11T14:29:12.537Z,4.20
2023-03-11T14:33:36.610Z,4.20
2023-03-11T14:38:00.943Z,4.20
2023-03-11T14:42:28.195Z,4.10
2023-03-11T14:46:56.811Z,3.90
2023-03-11T14:51:25.924Z,3.90
2023-03-11T14:55:52.100Z,4.00
2023-03-11T15:00:19.868Z,4.10
2023-03-11T15:04:45.134Z,4.10
2023-03-11T15:09:12.022Z,4.10
2023-03-11T15:13:37.318Z,4.20
2023-03-11T15:18:02.918Z,4.30
2023-03-11T15:22:30.840Z,4.20
2023-03-11T15:26:57.594Z,4.30
2023-03-11T15:31:34.365Z,4.40
2023-03-11T15:35:58.758Z,4.50
2023-03-11T15:40:42.441Z,4.50
2023-03-11T15:45:19.525Z,4.40
2023-03-11T15:49:43.826Z,4.30
2023-03-11T15:54:07.972Z,4.10
2023-03-11T15:58:33.346Z,3.90
2023-03-11T16:02:57.478Z,3.70
2023-03-11T16:07:32.996Z,3.50
2023-03-11T16:12:06.927Z,3.30
2023-03-11T16:16:32.427Z,3.20
2023-03-11T16:20:56.671Z,3.10
2023-03-11T16:25:24.228Z,3.00
2023-03-11T16:29:48.179Z,2.80
2023-03-11T16:34:13.631Z,2.70
2023-03-11T16:38:45.290Z,2.60
2023-03-11T16:43:12.718Z,2.50
2023-03-11T16:47:36.682Z,2.40
2023-03-11T16:52:02.077Z,2.20
2023-03-11T16:56:28.998Z,2.10
2023-03-11T17:00:53.565Z,2.00
2023-03-11T17:05:18.249Z,1.90
2023-03-11T17:09:44.160Z,1.80
2023-03-11T17:14:16.165Z,1.70
2023-03-11T17:18:40.952Z,1.60
2023-03-11T17:23:05.643Z,1.50
2023-03-11T17:27:32.852Z,1.30
2023-03-11T17:31:56.784Z,1.30
2023-03-11T17:36:21.528Z,1.10
2023-03-11T17:40:45.546Z,1.00
2023-03-11T17:45:12.465Z,0.90
2023-03-11T17:49:36.571Z,0.90
2023-03-11T17:54:01.407Z,0.90
2023-03-11T17:58:25.445Z,0.90
2023-03-11T18:02:51.346Z,1.00
2023-03-11T18:07:15.454Z,0.90
2023-03-11T18:11:39.572Z,0.90
2023-03-11T18:16:06.464Z,0.80
2023-03-11T18:20:31.902Z,0.70
2023-03-11T18:25:03.034Z,0.60
2023-03-11T18:29:27.462Z,0.60
2023-03-11T18:33:53.143Z,0.50
2023-03-11T18:38:18.331Z,0.50
2023-03-11T18:42:42.481Z,0.50
2023-03-11T18:47:06.430Z,0.50
2023-03-11T18:51:32.421Z,0.40
2023-03-11T18:56:01.960Z,0.40
2023-03-11T19:00:25.916Z,0.40
2023-03-11T19:04:50.097Z,0.30
2023-03-11T19:09:14.649Z,0.30
2023-03-11T19:13:47.055Z,0.20
2023-03-11T19:18:11.534Z,0.20
2023-03-11T19:22:35.489Z,0.10
2023-03-11T19:26:59.292Z,0.00
2023-03-11T19:31:24.558Z,-0.10
2023-03-11T19:35:53.393Z,-0.10
2023-03-11T19:40:18.724Z,-0.10
2023-03-11T19:44:42.556Z,-0.10
2023-03-11T19:49:07.897Z,-0.20
2023-03-11T19:53:31.761Z,-0.30
2023-03-11T19:57:56.037Z,-0.40
2023-03-11T20:02:19.901Z,-0.50
2023-03-11T20:06:45.682Z,-0.60
2023-03-11T20:11:09.838Z,-0.60
2023-03-11T20:15:33.818Z,-0.60
2023-03-11T20:19:57.866Z,-0.60
2023-03-11T20:24:23.098Z,-0.70
2023-03-11T20:28:47.153Z,-0.70
2023-03-11T20:33:11.094Z,-0.70
2023-03-11T20:37:34.952Z,-0.70
2023-03-11T20:42:00.973Z,-0.60
2023-03-11T20:46:25.293Z,-0.50
2023-03-11T20:50:49.283Z,-0.40
2023-03-11T20:55:13.969Z,-0.40
2023-03-11T20:59:39.799Z,-0.40
2023-03-11T21:04:05.234Z,-0.40
2023-03-11T21:08:29.429Z,-0.50
2023-03-11T21:12:53.302Z,-0.50
2023-03-11T21:17:18.791Z,-0.50
2023-03-11T21:21:43.164Z,-0.60
2023-03-11T21:26:07.698Z,-0.60
2023-03-11T21:30:32.016Z,-0.70
2023-03-11T21:34:59.189Z,-0.70
2023-03-11T21:39:23.341Z,-0.70
2023-03-11T21:43:47.929Z,-0.70
2023-03-11T21:48:13.642Z,-0.70
2023-03-11T21:52:41.432Z,-0.70
2023-03-11T21:57:05.597Z,-0.70
2023-03-11T22:01:29.771Z,-0.70
2023-03-11T22:05:58.168Z,-0.70
2023-03-11T22:10:25.283Z,-0.70
2023-03-11T22:14:49.586Z,-0.70
2023-03-11T22:19:13.746Z,-0.70
2023-03-11T22:23:37.973Z,-0.70
2023-03-11T22:28:03.920Z,-0.70
2023-03-11T22:32:27.716Z,-0.70
2023-03-11T22:36:51.671Z,-0.80
2023-03-11T22:41:19.312Z,-0.80
2023-03-11T22:45:46.399Z,-0.90
2023-03-11T22:50:13.715Z,-0.90
2023-03-11T22:54:38.515Z,-0.90
2023-03-11T22:59:02.678Z,-0.90
2023-03-11T23:03:28.178Z,-1.00
2023-03-11T23:07:52.715Z,-1.00
2023-03-11T23:12:16.980Z,-1.10
2023-03-11T23:16:41.902Z,-1.10
2023-03-11T23:21:15.610Z,-1.10
2023-03-11T23:25:46.235Z,-1.20
2023-03-11T23:30:12.264Z,-1.20
2023-03-11T23:34:37.373Z,-1.20
2023-03-11T23:39:07.127Z,-1.20
2023-03-11T23:43:31.404Z,-1.20
2023-03-11T23:47:55.173Z,-1.20
2023-03-11T23:52:21.664Z,-1.30
2023-03-11T23:56:47.068Z,-1.30
